createdAt,value
2022-10-07T00:01:10.502Z,17.37
2022-10-07T00:03:38.687Z,17.33
2022-10-07T00:06:07.909Z,17.30
2022-10-07T00:08:37.305Z,17.00
2022-10-07T00:11:12.694Z,16.89
2022-10-07T00:13:42.680Z,16.90
2022-10-07T00:16:13.967Z,17.02
2022-10-07T00:18:42.627Z,17.05
2022-10-07T00:21:13.188Z,16.86
2022-10-07T00:23:44.593Z,16.77
2022-10-07T00:26:18.809Z,16.93
2022-10-07T00:28:47.245Z,16.94
2022-10-07T00:31:21.778Z,16.84
2022-10-07T00:33:49.941Z,16.86
2022-10-07T00:36:26.821Z,16.65
2022-10-07T00:38:57.737Z,16.71
2022-10-07T00:41:50.504Z,16.81
2022-10-07T00:44:36.400Z,16.80
2022-10-07T00:47:11.687Z,16.83
2022-10-07T00:49:45.763Z,16.84
2022-10-07T00:52:16.377Z,16.71
2022-10-07T00:54:44.308Z,16.52
2022-10-07T00:57:12.433Z,16.64
2022-10-07T00:59:40.166Z,16.73
2022-10-07T01:02:10.130Z,16.53
2022-10-07T01:04:39.199Z,16.45
2022-10-07T01:07:07.144Z,16.57
2022-10-07T01:09:35.439Z,16.53
2022-10-07T01:12:30.654Z,16.42
2022-10-07T01:15:10.782Z,16.42
2022-10-07T01:17:53.266Z,16.47
2022-10-07T01:20:32.377Z,16.36
2022-10-07T01:23:14.983Z,16.43
2022-10-07T01:26:20.591Z,16.60
2022-10-07T01:28:54.210Z,16.35
2022-10-07T01:31:25.933Z,16.33
2022-10-07T01:33:55.563Z,16.17
2022-10-07T01:36:27.278Z,16.15
2022-10-07T01:39:02.661Z,16.31
2022-10-07T01:41:33.406Z,16.31
2022-10-07T01:44:03.048Z,16.21
2022-10-07T01:46:31.369Z,16.22
2022-10-07T01:49:01.750Z,16.21
2022-10-07T01:51:33.878Z,16.14
2022-10-07T01:54:19.941Z,16.03
2022-10-07T01:57:14.964Z,16.13
2022-10-07T01:59:45.690Z,16.19
2022-10-07T02:02:33.535Z,16.14
2022-10-07T02:05:16.300Z,16.23
2022-10-07T02:08:19.322Z,16.35
2022-10-07T02:11:12.206Z,16.30
2022-10-07T02:14:12.025Z,16.29
2022-10-07T02:16:45.718Z,16.30
2022-10-07T02:19:41.351Z,16.39
2022-10-07T02:22:11.096Z,16.37
2022-10-07T02:24:40.451Z,16.38
2022-10-07T02:27:13.958Z,16.29
2022-10-07T02:29:46.912Z,16.05
2022-10-07T02:32:20.395Z,16.21
2022-10-07T02:34:54.388Z,16.19
2022-10-07T02:37:27.852Z,16.27
2022-10-07T02:39:57.855Z,16.35
2022-10-07T02:42:39.929Z,16.05
2022-10-07T02:45:21.185Z,15.93
2022-10-07T02:48:04.299Z,16.00
2022-10-07T02:50:38.657Z,16.02
2022-10-07T02:53:08.003Z,15.99
2022-10-07T02:55:36.841Z,15.98
2022-10-07T02:58:08.756Z,16.05
2022-10-07T03:00:42.464Z,16.08
2022-10-07T03:03:10.868Z,16.10
2022-10-07T03:05:49.564Z,15.97
2022-10-07T03:08:20.046Z,15.83
2022-10-07T03:10:48.368Z,15.89
2022-10-07T03:13:16.456Z,15.95
2022-10-07T03:15:49.831Z,15.93
2022-10-07T03:18:28.696Z,15.90
2022-10-07T03:21:17.323Z,16.01
2022-10-07T03:23:50.719Z,15.96
2022-10-07T03:26:19.259Z,15.95
2022-10-07T03:28:49.250Z,16.01
2022-10-07T03:31:17.850Z,15.94
2022-10-07T03:33:50.223Z,15.92
2022-10-07T03:36:19.788Z,15.73
2022-10-07T03:38:48.759Z,15.55
2022-10-07T03:41:17.849Z,15.63
2022-10-07T03:43:47.517Z,15.74
2022-10-07T03:46:20.476Z,15.71
2022-10-07T03:48:48.630Z,15.73
2022-10-07T03:51:16.240Z,15.78
2022-10-07T03:53:43.866Z,15.78
2022-10-07T03:56:13.072Z,15.76
2022-10-07T03:58:43.044Z,15.84
2022-10-07T04:01:15.242Z,15.86
2022-10-07T04:03:53.767Z,15.78
2022-10-07T04:06:21.809Z,15.59
2022-10-07T04:08:55.482Z,15.72
2022-10-07T04:11:24.569Z,15.83
2022-10-07T04:13:55.770Z,15.70
2022-10-07T04:16:26.321Z,15.56
2022-10-07T04:18:56.139Z,15.59
2022-10-07T04:21:24.965Z,15.46
2022-10-07T04:23:52.637Z,15.35
2022-10-07T04:26:20.293Z,15.29
2022-10-07T04:28:50.201Z,15.27
2022-10-07T04:31:23.987Z,15.28
2022-10-07T04:33:59.934Z,15.39
2022-10-07T04:36:33.290Z,15.50
2022-10-07T04:39:15.667Z,15.47
2022-10-07T04:41:54.775Z,15.47
2022-10-07T04:44:27.440Z,15.22
2022-10-07T04:47:00.496Z,15.20
2022-10-07T04:49:31.105Z,15.39
2022-10-07T04:52:00.773Z,15.49
2022-10-07T04:54:34.204Z,15.48
2022-10-07T04:57:01.912Z,15.56
2022-10-07T04:59:30.202Z,15.43
2022-10-07T05:01:59.356Z,15.45
2022-10-07T05:04:28.638Z,15.47
2022-10-07T05:06:57.575Z,15.48
2022-10-07T05:09:26.218Z,15.32
2022-10-07T05:11:57.713Z,15.18
2022-10-07T05:14:25.461Z,15.26
2022-10-07T05:16:54.058Z,15.34
2022-10-07T05:19:25.950Z,15.35
2022-10-07T05:21:55.256Z,15.43
2022-10-07T05:24:24.323Z,15.44
2022-10-07T05:26:51.921Z,15.47
2022-10-07T05:29:19.699Z,15.41
2022-10-07T05:31:51.031Z,15.46
2022-10-07T05:34:21.986Z,15.47
2022-10-07T05:36:49.809Z,15.62
2022-10-07T05:39:17.519Z,15.66
2022-10-07T05:41:52.235Z,15.71
2022-10-07T05:44:25.480Z,15.85
2022-10-07T05:46:55.946Z,15.86
2022-10-07T05:49:24.851Z,15.94
2022-10-07T05:51:52.791Z,15.92
2022-10-07T05:54:20.911Z,15.93
2022-10-07T05:56:49.612Z,15.98
2022-10-07T05:59:20.801Z,16.05
2022-10-07T06:01:49.519Z,16.22
2022-10-07T06:04:21.586Z,16.36
2022-10-07T06:06:52.169Z,16.46
2022-10-07T06:09:39.069Z,16.58
2022-10-07T06:12:32.359Z,16.68
2022-10-07T06:15:03.727Z,16.83
2022-10-07T06:17:31.309Z,16.88
2022-10-07T06:20:01.235Z,16.97
2022-10-07T06:22:29.419Z,17.02
2022-10-07T06:24:58.953Z,17.16
2022-10-07T06:27:27.773Z,17.23
2022-10-07T06:29:56.076Z,17.33
2022-10-07T06:32:23.723Z,17.37
2022-10-07T06:34:51.763Z,17.48
2022-10-07T06:37:20.702Z,17.56
2022-10-07T06:39:48.558Z,17.40
2022-10-07T06:42:17.526Z,17.61
2022-10-07T06:45:00.107Z,17.54
2022-10-07T06:47:28.635Z,17.70
2022-10-07T06:49:57.008Z,17.98
2022-10-07T06:52:24.529Z,18.13
2022-10-07T06:54:53.047Z,18.21
2022-10-07T06:57:44.341Z,18.29
2022-10-07T07:00:10.618Z,18.58
2022-10-07T07:02:39.021Z,18.60
2022-10-07T07:05:08.616Z,18.78
2022-10-07T07:07:38.302Z,18.84
2022-10-07T07:10:07.396Z,18.98
2022-10-07T07:12:38.226Z,19.19
2022-10-07T07:15:07.049Z,19.35
2022-10-07T07:17:34.690Z,19.45
2022-10-07T07:20:02.641Z,19.67
2022-10-07T07:22:31.475Z,19.72
2022-10-07T07:24:59.544Z,19.86
2022-10-07T07:27:27.523Z,19.90
2022-10-07T07:29:56.033Z,20.08
2022-10-07T07:32:24.068Z,20.30
2022-10-07T07:37:23.682Z,20.44
2022-10-07T07:39:55.257Z,20.52
2022-10-07T07:42:23.050Z,20.66
2022-10-07T07:44:51.340Z,20.90
2022-10-07T07:47:21.793Z,21.02
2022-10-07T07:49:50.771Z,21.12
2022-10-07T07:52:25.730Z,21.21
2022-10-07T07:54:58.997Z,21.44
2022-10-07T07:57:27.318Z,21.59
2022-10-07T07:59:56.503Z,21.75
2022-10-07T08:02:24.948Z,21.81
2022-10-07T08:04:54.015Z,21.90
2022-10-07T08:07:22.759Z,22.09
2022-10-07T08:09:51.749Z,22.17
2022-10-07T08:12:21.210Z,22.33
2022-10-07T08:14:50.222Z,22.39
2022-10-07T08:17:18.181Z,22.53
2022-10-07T08:19:47.050Z,22.57
2022-10-07T08:22:17.732Z,22.60
2022-10-07T08:24:49.274Z,22.78
2022-10-07T08:27:19.483Z,23.12
2022-10-07T08:29:47.104Z,23.39
2022-10-07T08:32:15.172Z,23.48
2022-10-07T08:34:42.942Z,23.52
2022-10-07T08:37:10.527Z,23.67
2022-10-07T08:39:38.071Z,24.02
2022-10-07T08:42:20.743Z,24.93
2022-10-07T08:44:50.923Z,25.90
2022-10-07T08:47:34.771Z,26.37
2022-10-07T08:50:06.549Z,27.28
2022-10-07T08:52:49.580Z,27.60
2022-10-07T08:55:30.473Z,28.51
2022-10-07T08:58:04.656Z,29.26
2022-10-07T09:01:12.084Z,29.61
2022-10-07T09:03:45.736Z,29.58
2022-10-07T09:06:28.306Z,30.00
2022-10-07T09:09:04.603Z,30.47
2022-10-07T09:11:35.857Z,30.46
2022-10-07T09:14:31.549Z,31.13
2022-10-07T09:17:08.703Z,31.77
2022-10-07T09:19:43.684Z,32.09
2022-10-07T09:22:21.457Z,31.00
2022-10-07T09:25:00.009Z,31.84
2022-10-07T09:27:27.578Z,31.42
2022-10-07T09:29:55.167Z,31.99
2022-10-07T09:32:22.791Z,32.21
2022-10-07T09:34:52.340Z,31.72
2022-10-07T09:37:26.204Z,31.72
2022-10-07T09:39:57.857Z,31.63
2022-10-07T09:42:40.036Z,31.76
2022-10-07T09:45:26.479Z,32.62
2022-10-07T09:47:58.095Z,32.90
2022-10-07T09:50:43.565Z,32.84
2022-10-07T09:53:21.059Z,33.66
2022-10-07T09:55:50.705Z,32.42
2022-10-07T09:58:29.803Z,31.25
2022-10-07T10:01:02.033Z,32.29
2022-10-07T10:03:35.901Z,33.55
2022-10-07T10:06:04.970Z,33.59
2022-10-07T10:08:42.806Z,34.20
2022-10-07T10:11:19.401Z,34.92
2022-10-07T10:13:50.453Z,35.79
2022-10-07T10:16:34.065Z,36.02
2022-10-07T10:19:26.976Z,35.64
2022-10-07T10:21:56.738Z,36.05
2022-10-07T10:24:44.908Z,35.79
2022-10-07T10:27:27.314Z,34.05
2022-10-07T10:29:54.954Z,35.82
2022-10-07T10:32:31.415Z,33.22
2022-10-07T10:35:08.535Z,34.36
2022-10-07T10:37:41.950Z,34.52
2022-10-07T10:40:28.194Z,34.98
2022-10-07T10:43:26.284Z,35.46
2022-10-07T10:46:35.300Z,35.22
2022-10-07T10:49:11.200Z,36.74
2022-10-07T10:52:18.127Z,35.53
2022-10-07T10:55:04.366Z,35.72
2022-10-07T10:58:02.209Z,35.69
2022-10-07T11:00:44.968Z,34.71
2022-10-07T11:03:32.396Z,33.58
2022-10-07T11:06:04.268Z,33.52
2022-10-07T11:08:38.396Z,34.32
2022-10-07T11:11:15.938Z,34.57
2022-10-07T11:13:59.712Z,33.65
2022-10-07T11:16:44.845Z,34.91
2022-10-07T11:19:36.008Z,34.22
2022-10-07T11:22:11.903Z,33.75
2022-10-07T11:24:45.399Z,33.71
2022-10-07T11:27:27.906Z,33.55
2022-10-07T11:30:14.270Z,34.22
2022-10-07T11:32:56.061Z,34.04
2022-10-07T11:35:34.461Z,32.75
2022-10-07T11:38:10.952Z,32.61
2022-10-07T11:40:49.956Z,31.74
2022-10-07T11:43:27.802Z,33.31
2022-10-07T11:46:11.529Z,33.82
2022-10-07T11:48:46.971Z,33.50
2022-10-07T11:51:27.748Z,34.11
2022-10-07T11:53:59.669Z,34.82
2022-10-07T11:56:51.706Z,34.80
2022-10-07T11:59:46.102Z,34.05
2022-10-07T12:02:28.813Z,34.24
2022-10-07T12:05:00.537Z,33.58
2022-10-07T12:07:33.683Z,33.71
2022-10-07T12:10:07.676Z,34.24
2022-10-07T12:12:43.594Z,34.60
2022-10-07T12:15:35.829Z,34.91
2022-10-07T12:18:06.164Z,35.04
2022-10-07T12:20:52.828Z,36.15
2022-10-07T12:23:20.782Z,35.64
2022-10-07T12:26:03.434Z,35.83
2022-10-07T12:28:35.358Z,36.22
2022-10-07T12:31:15.663Z,35.89
2022-10-07T12:33:46.113Z,35.52
2022-10-07T12:36:32.224Z,36.21
2022-10-07T12:39:03.160Z,35.36
2022-10-07T12:41:40.019Z,35.34
2022-10-07T12:44:48.895Z,34.39
2022-10-07T12:47:29.048Z,35.62
2022-10-07T12:50:03.287Z,36.32
2022-10-07T12:52:31.542Z,35.63
2022-10-07T12:55:04.539Z,34.23
2022-10-07T12:57:36.557Z,34.36
2022-10-07T13:00:08.358Z,34.83
2022-10-07T13:02:55.306Z,35.96
2022-10-07T13:05:37.949Z,37.23
2022-10-07T13:08:42.975Z,37.49
2022-10-07T13:11:13.688Z,36.65
2022-10-07T13:13:51.912Z,37.88
2022-10-07T13:16:30.168Z,39.09
2022-10-07T13:19:16.832Z,38.19
2022-10-07T13:22:00.035Z,38.27
2022-10-07T13:24:28.972Z,39.77
2022-10-07T13:26:57.616Z,39.51
2022-10-07T13:29:33.010Z,41.20
2022-10-07T13:32:12.640Z,41.31
2022-10-07T13:34:40.972Z,43.02
2022-10-07T13:37:37.790Z,41.18
2022-10-07T13:40:35.243Z,42.33
2022-10-07T13:43:08.696Z,43.58
2022-10-07T13:45:45.286Z,44.13
2022-10-07T13:48:17.127Z,45.10
2022-10-07T13:50:45.300Z,45.57
2022-10-07T13:53:26.938Z,45.31
2022-10-07T13:56:08.370Z,44.70
2022-10-07T13:58:37.561Z,43.10
2022-10-07T14:01:06.341Z,42.62
2022-10-07T14:03:34.023Z,43.27
2022-10-07T14:06:02.543Z,44.21
2022-10-07T14:08:31.459Z,43.77
2022-10-07T14:11:08.291Z,41.96
2022-10-07T14:13:37.935Z,41.79
2022-10-07T14:16:05.716Z,40.68
2022-10-07T14:18:34.057Z,39.88
2022-10-07T14:21:17.460Z,38.36
2022-10-07T14:23:49.772Z,41.15
2022-10-07T14:26:19.094Z,42.13
2022-10-07T14:28:47.350Z,40.00
2022-10-07T14:31:39.687Z,41.49
2022-10-07T14:34:34.855Z,39.06
2022-10-07T14:37:27.296Z,40.54
2022-10-07T14:39:57.388Z,41.15
2022-10-07T14:42:33.039Z,43.22
2022-10-07T14:45:03.841Z,41.72
2022-10-07T14:47:39.120Z,40.52
2022-10-07T14:50:07.349Z,42.64
2022-10-07T14:52:47.087Z,43.33
2022-10-07T14:55:26.488Z,43.03
2022-10-07T14:57:54.158Z,43.27
2022-10-07T15:00:27.747Z,43.86
2022-10-07T15:02:56.969Z,42.58
2022-10-07T15:05:26.872Z,40.95
2022-10-07T15:07:54.514Z,40.59
2022-10-07T15:10:25.326Z,41.34
2022-10-07T15:12:54.356Z,41.78
2022-10-07T15:15:21.864Z,42.32
2022-10-07T15:17:49.387Z,42.06
2022-10-07T15:20:17.726Z,41.90
2022-10-07T15:22:46.034Z,42.01
2022-10-07T15:25:15.599Z,40.87
2022-10-07T15:27:43.842Z,39.51
2022-10-07T15:30:12.276Z,37.41
2022-10-07T15:32:40.393Z,35.55
2022-10-07T15:35:08.400Z,33.25
2022-10-07T15:37:36.023Z,31.57
2022-10-07T15:40:06.754Z,30.62
2022-10-07T15:42:34.384Z,29.74
2022-10-07T15:45:02.218Z,29.06
2022-10-07T15:47:33.373Z,28.53
2022-10-07T15:50:01.355Z,28.05
2022-10-07T15:52:28.887Z,27.94
2022-10-07T15:54:56.841Z,28.05
2022-10-07T15:57:25.009Z,27.59
2022-10-07T15:59:54.847Z,27.36
2022-10-07T16:02:22.581Z,26.80
2022-10-07T16:04:50.748Z,26.54
2022-10-07T16:07:18.622Z,26.61
2022-10-07T16:09:46.256Z,26.68
2022-10-07T16:12:13.802Z,26.61
2022-10-07T16:14:41.456Z,26.72
2022-10-07T16:17:08.985Z,26.72
2022-10-07T16:19:37.013Z,26.76
2022-10-07T16:22:05.546Z,26.65
2022-10-07T16:24:35.474Z,26.51
2022-10-07T16:27:03.480Z,26.20
2022-10-07T16:29:50.278Z,26.07
2022-10-07T16:32:17.869Z,25.98
2022-10-07T16:34:46.963Z,25.94
2022-10-07T16:37:15.512Z,25.77
2022-10-07T16:39:43.609Z,25.53
2022-10-07T16:42:11.315Z,25.18
2022-10-07T16:44:39.755Z,25.03
2022-10-07T16:47:08.114Z,24.70
2022-10-07T16:49:36.542Z,24.68
2022-10-07T16:52:04.525Z,24.41
2022-10-07T16:54:35.547Z,24.28
2022-10-07T16:57:03.367Z,24.20
2022-10-07T16:59:31.497Z,24.24
2022-10-07T17:02:02.498Z,23.99
2022-10-07T17:04:30.805Z,23.87
2022-10-07T17:06:58.516Z,23.80
2022-10-07T17:09:26.754Z,23.79
2022-10-07T17:11:54.303Z,23.69
2022-10-07T17:14:23.781Z,23.50
2022-10-07T17:16:56.206Z,23.36
2022-10-07T17:19:26.670Z,23.31
2022-10-07T17:21:56.319Z,23.25
2022-10-07T17:24:25.004Z,23.18
2022-10-07T17:26:53.131Z,23.05
2022-10-07T17:29:23.396Z,23.22
2022-10-07T17:31:51.514Z,23.11
2022-10-07T17:34:20.783Z,22.97
2022-10-07T17:36:50.287Z,23.23
2022-10-07T17:39:19.461Z,23.24
2022-10-07T17:41:48.161Z,23.04
2022-10-07T17:44:15.855Z,22.84
2022-10-07T17:46:43.761Z,22.85
2022-10-07T17:51:43.221Z,22.58
2022-10-07T17:54:13.436Z,22.34
2022-10-07T17:56:43.458Z,22.32
2022-10-07T17:59:11.456Z,22.15
2022-10-07T18:01:39.072Z,22.02
2022-10-07T18:04:10.799Z,21.92
2022-10-07T18:06:39.769Z,21.87
2022-10-07T18:09:09.292Z,21.89
2022-10-07T18:11:55.778Z,22.05
2022-10-07T18:14:42.004Z,22.09
2022-10-07T18:17:11.315Z,21.99
2022-10-07T18:19:42.253Z,21.74
2022-10-07T18:22:10.292Z,21.58
2022-10-07T18:24:38.657Z,21.42
2022-10-07T18:27:06.447Z,21.21
2022-10-07T18:29:38.471Z,21.06
2022-10-07T18:32:07.524Z,21.12
2022-10-07T18:34:35.218Z,21.29
2022-10-07T18:37:03.215Z,21.21
2022-10-07T18:39:30.812Z,21.12
2022-10-07T18:41:58.970Z,21.07
2022-10-07T18:44:26.975Z,21.00
2022-10-07T18:46:55.196Z,21.10
2022-10-07T18:49:23.560Z,21.00
2022-10-07T18:51:51.629Z,21.10
2022-10-07T18:54:20.081Z,20.99
2022-10-07T18:56:49.161Z,21.05
2022-10-07T18:59:18.525Z,20.90
2022-10-07T19:01:50.171Z,21.08
2022-10-07T19:04:19.774Z,21.03
2022-10-07T19:06:48.332Z,20.88
2022-10-07T19:09:20.015Z,20.66
2022-10-07T19:11:48.279Z,20.53
2022-10-07T19:14:17.276Z,20.57
2022-10-07T19:16:49.395Z,20.51
2022-10-07T19:19:19.817Z,20.46
2022-10-07T19:21:53.268Z,20.60
2022-10-07T19:24:42.519Z,20.74
2022-10-07T19:27:10.067Z,20.61
2022-10-07T19:29:37.656Z,20.42
2022-10-07T19:32:08.468Z,20.29
2022-10-07T19:34:36.575Z,20.14
2022-10-07T19:37:04.721Z,20.27
2022-10-07T19:39:32.396Z,20.31
2022-10-07T19:42:00.315Z,20.40
2022-10-07T19:44:28.347Z,20.17
2022-10-07T19:46:55.861Z,19.97
2022-10-07T19:49:23.848Z,19.74
2022-10-07T19:51:53.468Z,19.76
2022-10-07T19:54:21.476Z,19.61
2022-10-07T19:56:49.494Z,19.59
2022-10-07T19:59:17.208Z,19.71
2022-10-07T20:01:47.558Z,19.71
2022-10-07T20:04:21.012Z,19.73
2022-10-07T20:06:49.222Z,19.69
2022-10-07T20:09:18.790Z,19.61
2022-10-07T20:11:46.977Z,19.49
2022-10-07T20:14:16.278Z,19.47
2022-10-07T20:16:45.059Z,19.56
2022-10-07T20:19:15.903Z,19.68
2022-10-07T20:21:43.508Z,19.64
2022-10-07T20:24:17.302Z,19.46
2022-10-07T20:26:45.424Z,19.56
2022-10-07T20:29:16.077Z,19.39
2022-10-07T20:31:44.505Z,19.42
2022-10-07T20:34:16.101Z,19.38
2022-10-07T20:36:43.893Z,19.26
2022-10-07T20:39:39.463Z,19.01
2022-10-07T20:42:21.575Z,19.11
2022-10-07T20:44:50.738Z,19.04
2022-10-07T20:47:19.708Z,19.06
2022-10-07T20:49:49.032Z,19.21
2022-10-07T20:52:22.603Z,19.28
2022-10-07T20:54:51.261Z,19.35
2022-10-07T20:57:24.433Z,19.35
2022-10-07T20:59:52.102Z,19.37
2022-10-07T21:02:21.967Z,19.35
2022-10-07T21:04:50.600Z,19.37
2022-10-07T21:07:19.566Z,19.37
2022-10-07T21:09:47.430Z,19.09
2022-10-07T21:12:16.968Z,19.11
2022-10-07T21:14:48.150Z,19.04
2022-10-07T21:17:16.783Z,18.91
2022-10-07T21:19:44.471Z,18.80
2022-10-07T21:22:12.059Z,18.54
2022-10-07T21:24:39.604Z,18.56
2022-10-07T21:27:07.919Z,18.46
2022-10-07T21:29:40.460Z,18.44
2022-10-07T21:32:10.482Z,18.42
2022-10-07T21:34:38.561Z,18.38
2022-10-07T21:37:06.561Z,18.35
2022-10-07T21:39:34.236Z,18.34
2022-10-07T21:42:01.974Z,18.39
2022-10-07T21:44:32.309Z,18.37
2022-10-07T21:47:00.098Z,18.46
2022-10-07T21:49:27.829Z,18.36
2022-10-07T21:51:55.844Z,18.22
2022-10-07T21:54:23.483Z,18.18
2022-10-07T21:56:51.493Z,18.09
2022-10-07T21:59:19.082Z,17.99
2022-10-07T22:01:46.765Z,17.90
2022-10-07T22:04:19.038Z,17.82
2022-10-07T22:07:06.092Z,17.80
2022-10-07T22:09:35.733Z,18.07
2022-10-07T22:12:03.464Z,18.04
2022-10-07T22:14:31.594Z,17.98
2022-10-07T22:16:59.268Z,18.18
2022-10-07T22:19:27.067Z,18.34
2022-10-07T22:21:55.415Z,18.18
2022-10-07T22:24:24.152Z,18.12
2022-10-07T22:26:52.398Z,18.01
2022-10-07T22:29:21.724Z,17.81
2022-10-07T22:31:49.518Z,17.92
2022-10-07T22:34:35.964Z,18.01
2022-10-07T22:37:04.400Z,17.79
2022-10-07T22:39:32.163Z,17.80
2022-10-07T22:42:01.213Z,17.80
2022-10-07T22:44:29.269Z,17.77
2022-10-07T22:46:59.530Z,17.83
2022-10-07T22:49:29.961Z,17.90
2022-10-07T22:52:00.045Z,17.86
2022-10-07T22:54:28.583Z,17.82
2022-10-07T22:56:56.284Z,17.51
2022-10-07T22:59:24.213Z,17.47
2022-10-07T23:01:52.484Z,17.38
2022-10-07T23:04:21.493Z,17.41
2022-10-07T23:06:50.366Z,17.42
2022-10-07T23:09:18.337Z,17.33
2022-10-07T23:11:45.947Z,17.23
2022-10-07T23:14:13.624Z,17.45
2022-10-07T23:16:42.006Z,17.43
2022-10-07T23:19:10.319Z,17.60
2022-10-07T23:21:38.069Z,17.70
2022-10-07T23:24:08.003Z,17.72
2022-10-07T23:26:37.331Z,17.76
2022-10-07T23:29:05.123Z,17.68
2022-10-07T23:31:33.527Z,17.54
2022-10-07T23:34:03.182Z,17.51
2022-10-07T23:36:31.497Z,17.51
2022-10-07T23:39:00.550Z,17.29
2022-10-07T23:41:30.901Z,17.29
2022-10-07T23:44:00.767Z,17.12
2022-10-07T23:46:33.248Z,16.94
2022-10-07T23:49:01.086Z,17.08
2022-10-07T23:51:30.104Z,17.05
2022-10-07T23:53:59.773Z,17.07
2022-10-07T23:56:28.197Z,17.21
2022-10-07T23:58:56.390Z,17.32
